Time;durP1;ratioP1;P1;durP2;ratioP2;P2;SDS_P1;SDS_P2;PMS_P1;PMS_P2;Temp;Humidity;BMP_temperature;BMP_pressure;BME280_temperature;BME280_humidity;BME280_pressure;Samples;Min_cycle;Max_cycle;Signal;HPM_P1;HPM_P2
2022/07/27 00:00:37;;;;;;;67.47;2.50;;;19.20;1.00;;;;;;5080791;28;20164;-84
2022/07/27 00:03:02;;;;;;;68.73;2.97;;;19.20;1.00;;;;;;5081716;28;20165;-84
2022/07/27 00:05:28;;;;;;;67.60;2.40;;;19.20;1.00;;;;;;5081575;28;20176;-84
2022/07/27 00:07:55;;;;;;;66.50;3.10;;;19.30;1.00;;;;;;5079714;28;20188;-84
2022/07/27 00:10:20;;;;;;;66.00;3.00;;;19.20;1.00;;;;;;5080437;28;20187;-84
2022/07/27 00:12:46;;;;;;;67.00;2.70;;;19.30;1.00;;;;;;5080737;28;20410;-84
2022/07/27 00:15:12;;;;;;;69.20;2.63;;;19.40;1.00;;;;;;5081559;28;20160;-83
2022/07/27 00:17:38;;;;;;;68.60;2.33;;;19.30;1.00;;;;;;5080632;28;20433;-84
2022/07/27 00:20:04;;;;;;;67.67;2.90;;;19.20;1.00;;;;;;5082022;28;20168;-84
2022/07/27 00:22:30;;;;;;;66.77;2.93;;;19.30;1.00;;;;;;5081758;28;20171;-84
2022/07/27 00:24:55;;;;;;;69.57;2.90;;;19.20;1.00;;;;;;5085498;28;20407;-84
2022/07/27 00:27:21;;;;;;;67.00;3.60;;;19.20;1.00;;;;;;5085949;28;20218;-84
2022/07/27 00:29:47;;;;;;;67.10;2.67;;;19.30;1.00;;;;;;5082701;28;20212;-84
2022/07/27 00:32:12;;;;;;;67.27;2.50;;;19.30;1.00;;;;;;5083328;28;20164;-84
2022/07/27 00:34:38;;;;;;;69.50;2.83;;;19.30;1.00;;;;;;5081646;28;20165;-84
2022/07/27 00:37:04;;;;;;;68.27;2.67;;;19.30;1.00;;;;;;5081056;28;20190;-84
2022/07/27 00:39:30;;;;;;;74.03;2.90;;;19.30;1.00;;;;;;5080987;28;20215;-84
2022/07/27 00:41:56;;;;;;;71.87;3.03;;;19.30;1.00;;;;;;5080586;28;20157;-84
2022/07/27 00:44:27;;;;;;;66.00;2.50;;;19.20;1.00;;;;;;5078588;28;20432;-84
2022/07/27 00:46:53;;;;;;;66.97;2.87;;;19.20;1.00;;;;;;5080432;28;20509;-84
2022/07/27 00:49:19;;;;;;;72.43;2.60;;;19.20;1.00;;;;;;5079040;28;20437;-84
2022/07/27 00:51:45;;;;;;;67.30;2.37;;;19.10;1.00;;;;;;5080439;28;20402;-84
2022/07/27 00:54:10;;;;;;;67.00;2.43;;;19.20;1.00;;;;;;5079298;28;20417;-84
2022/07/27 00:56:43;;;;;;;65.60;2.50;;;19.10;1.00;;;;;;5080068;28;20271;-84
2022/07/27 00:59:13;;;;;;;66.37;3.03;;;19.20;1.00;;;;;;5080260;28;20258;-84
2022/07/27 01:01:40;;;;;;;70.93;3.13;;;19.10;1.00;;;;;;5080521;28;20475;-84
2022/07/27 01:04:06;;;;;;;67.13;3.10;;;19.20;1.00;;;;;;5080369;28;20398;-84
2022/07/27 01:06:32;;;;;;;67.80;2.93;;;19.20;1.00;;;;;;5080411;28;20470;-84
2022/07/27 01:11:44;;;;;;;68.60;3.63;;;18.90;1.00;;;;;;5080644;28;20381;-84
2022/07/27 01:14:12;;;;;;;67.40;3.67;;;18.80;1.00;;;;;;5080038;28;20485;-84
2022/07/27 01:16:38;;;;;;;67.70;3.37;;;18.90;1.00;;;;;;5081036;28;20793;-84
2022/07/27 01:19:04;;;;;;;71.00;4.40;;;18.90;1.00;;;;;;5080477;28;20418;-84
2022/07/27 01:21:34;;;;;;;66.47;3.93;;;18.80;1.00;;;;;;5080630;28;20762;-84
2022/07/27 01:24:00;;;;;;;70.43;4.30;;;18.70;1.00;;;;;;5080409;28;20530;-84
2022/07/27 01:26:26;;;;;;;74.50;4.77;;;18.70;1.20;;;;;;5080344;28;20461;-84
2022/07/27 01:28:56;;;;;;;68.27;4.70;;;18.70;2.50;;;;;;5078441;28;20428;-84
2022/07/27 01:31:22;;;;;;;70.80;5.67;;;18.60;4.00;;;;;;5079784;28;20815;-84
2022/07/27 01:33:48;;;;;;;70.70;5.90;;;18.70;4.70;;;;;;5079170;28;20442;-84
2022/07/27 01:36:14;;;;;;;72.67;5.60;;;18.70;4.80;;;;;;5079695;28;20438;-84
2022/07/27 01:38:39;;;;;;;66.80;4.50;;;18.80;4.00;;;;;;5080000;28;20180;-84
2022/07/27 01:41:05;;;;;;;69.00;4.40;;;18.80;3.90;;;;;;5079630;28;20165;-84
2022/07/27 01:43:34;;;;;;;67.70;4.80;;;18.90;3.30;;;;;;5079955;28;20164;-84
2022/07/27 01:46:00;;;;;;;68.97;5.97;;;18.80;3.80;;;;;;5079939;28;20627;-84
2022/07/27 01:48:25;;;;;;;67.20;4.70;;;18.80;4.60;;;;;;5080216;28;20497;-84
2022/07/27 01:50:52;;;;;;;65.77;4.20;;;18.80;5.10;;;;;;5078342;28;20175;-84
2022/07/27 01:53:22;;;;;;;69.57;5.07;;;18.90;4.60;;;;;;5079963;28;20452;-84
2022/07/27 01:55:49;;;;;;;68.17;4.97;;;18.90;4.60;;;;;;5080214;28;20506;-84
2022/07/27 01:58:15;;;;;;;72.03;7.47;;;18.80;5.20;;;;;;5079751;28;20427;-84
2022/07/27 02:00:41;;;;;;;72.73;5.03;;;18.50;9.20;;;;;;5082848;28;20823;-84
2022/07/27 02:03:08;;;;;;;67.67;5.27;;;18.50;11.60;;;;;;5083907;28;20425;-84
2022/07/27 02:05:36;;;;;;;69.67;4.97;;;18.60;10.40;;;;;;5084173;28;20414;-84
2022/07/27 02:08:03;;;;;;;81.93;5.43;;;18.50;10.20;;;;;;5084006;28;20456;-84
2022/07/27 02:10:32;;;;;;;70.23;4.90;;;18.60;10.50;;;;;;5084529;28;20406;-84
2022/07/27 02:12:58;;;;;;;69.07;4.87;;;18.60;9.60;;;;;;5083837;28;20413;-84
2022/07/27 02:15:26;;;;;;;67.67;5.40;;;18.70;9.80;;;;;;5084690;28;20438;-84
2022/07/27 02:17:53;;;;;;;68.00;5.00;;;18.70;10.30;;;;;;5083516;28;20535;-84
2022/07/27 02:20:29;;;;;;;66.80;5.13;;;18.70;10.90;;;;;;5084640;28;20404;-84
2022/07/27 02:22:54;;;;;;;66.93;4.00;;;18.70;10.70;;;;;;5082704;28;20409;-84
2022/07/27 02:25:20;;;;;;;68.40;4.37;;;18.70;12.20;;;;;;5083420;28;20394;-84
2022/07/27 02:27:47;;;;;;;66.37;3.87;;;18.80;12.70;;;;;;5083600;28;20187;-84
2022/07/27 02:30:14;;;;;;;66.30;4.30;;;18.80;13.60;;;;;;5082087;28;20160;-84
2022/07/27 02:32:41;;;;;;;67.10;4.07;;;18.70;14.10;;;;;;5083827;28;20448;-84
2022/07/27 02:35:13;;;;;;;70.00;3.93;;;18.70;15.70;;;;;;5083368;28;20398;-84
2022/07/27 02:37:38;;;;;;;66.40;3.60;;;18.60;17.80;;;;;;5082559;28;20452;-85
2022/07/27 02:40:04;;;;;;;67.87;3.60;;;18.60;18.60;;;;;;5083657;28;20489;-84
2022/07/27 02:42:30;;;;;;;68.20;3.70;;;18.60;18.90;;;;;;5083378;28;20160;-84
2022/07/27 02:44:56;;;;;;;65.37;3.53;;;18.60;19.50;;;;;;5082855;28;20419;-84
2022/07/27 02:47:22;;;;;;;69.57;4.03;;;18.50;20.00;;;;;;5099606;22;20511;-82
2022/07/27 02:49:47;;;;;;;68.60;4.70;;;18.50;19.30;;;;;;5088117;28;20172;-83
2022/07/27 02:52:13;;;;;;;67.17;4.13;;;18.50;19.40;;;;;;5087349;28;20171;-83
2022/07/27 02:54:39;;;;;;;66.10;4.20;;;18.40;18.40;;;;;;5088109;28;20239;-82
2022/07/27 02:57:04;;;;;;;66.50;3.90;;;18.40;19.10;;;;;;5087901;28;20241;-83
2022/07/27 02:59:30;;;;;;;66.50;3.47;;;18.30;19.10;;;;;;5087580;28;20184;-83
2022/07/27 03:01:56;;;;;;;67.37;3.97;;;18.10;21.30;;;;;;5087527;28;20168;-82
2022/07/27 03:04:22;;;;;;;67.10;3.93;;;18.10;21.60;;;;;;5087405;28;20394;-82
2022/07/27 03:06:48;;;;;;;66.30;3.73;;;18.10;21.40;;;;;;5088346;28;20168;-83
2022/07/27 03:09:13;;;;;;;66.10;3.70;;;18.10;21.30;;;;;;5088215;28;20450;-83
2022/07/27 03:11:39;;;;;;;66.83;3.77;;;18.10;22.10;;;;;;5087588;28;20168;-83
2022/07/27 03:14:05;;;;;;;66.17;3.80;;;18.00;22.90;;;;;;5088178;28;20179;-83
2022/07/27 03:16:31;;;;;;;67.73;4.00;;;18.00;23.00;;;;;;5087949;28;20195;-83
2022/07/27 03:18:59;;;;;;;68.57;4.27;;;18.00;23.30;;;;;;5088124;28;20507;-83
2022/07/27 03:21:25;;;;;;;65.67;3.50;;;18.00;23.90;;;;;;5087641;28;20208;-83
2022/07/27 03:23:51;;;;;;;70.47;4.03;;;18.10;23.60;;;;;;5071179;28;20473;-83
2022/07/27 03:26:18;;;;;;;67.60;3.13;;;18.10;23.20;;;;;;5070472;28;20199;-83
2022/07/27 03:28:44;;;;;;;65.63;3.30;;;18.00;23.60;;;;;;5088277;28;20195;-83
2022/07/27 03:31:10;;;;;;;66.87;3.67;;;18.00;24.80;;;;;;5088155;28;20402;-83
2022/07/27 03:33:36;;;;;;;65.80;3.67;;;17.80;27.30;;;;;;5087941;28;20493;-83
2022/07/27 03:36:02;;;;;;;67.67;3.70;;;17.80;29.30;;;;;;5084866;28;20473;-83
2022/07/27 03:38:31;;;;;;;65.97;3.47;;;17.80;29.70;;;;;;5087969;28;20522;-83
2022/07/27 03:41:00;;;;;;;68.43;4.63;;;17.80;29.30;;;;;;5066821;28;20410;-82
2022/07/27 03:43:26;;;;;;;68.40;4.00;;;17.80;30.00;;;;;;5088449;28;20399;-83
2022/07/27 03:45:51;;;;;;;66.97;3.60;;;17.80;29.90;;;;;;5086437;28;20512;-83
2022/07/27 03:48:17;;;;;;;66.07;3.73;;;17.80;30.10;;;;;;5064993;28;20675;-83
2022/07/27 03:50:42;;;;;;;66.80;4.30;;;17.80;30.60;;;;;;5084239;28;20164;-82
2022/07/27 03:53:08;;;;;;;75.70;3.87;;;17.80;32.60;;;;;;5083057;28;20619;-83
2022/07/27 03:55:34;;;;;;;69.03;3.90;;;17.70;32.20;;;;;;5083235;28;20184;-83
2022/07/27 03:58:00;;;;;;;66.80;3.87;;;17.70;34.40;;;;;;5082478;28;20176;-83
2022/07/27 04:00:25;;;;;;;67.50;4.77;;;17.70;34.90;;;;;;5082145;28;20519;-83
2022/07/27 04:02:51;;;;;;;69.33;4.43;;;17.70;34.00;;;;;;5086358;28;20164;-82
2022/07/27 04:05:17;;;;;;;67.27;4.17;;;17.70;35.60;;;;;;5085728;28;20406;-83
2022/07/27 04:07:43;;;;;;;69.30;4.17;;;17.70;36.50;;;;;;5085653;28;20243;-83
2022/07/27 04:10:09;;;;;;;66.87;5.07;;;17.70;36.90;;;;;;5086501;28;20164;-83
2022/07/27 04:12:36;;;;;;;68.37;5.67;;;17.60;37.40;;;;;;5082245;28;20170;-83
2022/07/27 04:15:03;;;;;;;68.90;5.70;;;17.60;38.70;;;;;;5083124;28;20455;-83
2022/07/27 04:17:29;;;;;;;67.57;5.80;;;17.50;39.60;;;;;;5085246;28;20462;-83
2022/07/27 04:19:54;;;;;;;68.53;4.80;;;17.50;41.00;;;;;;5085866;28;20422;-82
2022/07/27 04:22:20;;;;;;;68.40;5.80;;;17.50;41.70;;;;;;5067026;28;20175;-83
2022/07/27 04:24:46;;;;;;;66.90;5.10;;;17.50;41.90;;;;;;5066542;28;20168;-83
2022/07/27 04:27:12;;;;;;;66.97;5.13;;;17.50;41.30;;;;;;5086111;28;20406;-83
2022/07/27 04:29:37;;;;;;;68.57;5.63;;;17.50;41.80;;;;;;5085375;28;20581;-83
2022/07/27 04:32:03;;;;;;;69.40;5.90;;;17.50;42.60;;;;;;5085621;28;20701;-83
2022/07/27 04:34:29;;;;;;;66.20;5.97;;;17.50;43.50;;;;;;5086076;28;20232;-83
2022/07/27 04:36:55;;;;;;;68.37;6.57;;;17.50;43.60;;;;;;5086472;28;20465;-83
2022/07/27 04:39:21;;;;;;;68.17;6.50;;;17.50;43.90;;;;;;5085736;28;20183;-83
2022/07/27 04:41:46;;;;;;;67.67;5.57;;;17.50;43.90;;;;;;5084291;28;20174;-83
2022/07/27 04:44:12;;;;;;;70.53;7.90;;;17.50;44.50;;;;;;5068416;28;20214;-83
2022/07/27 04:46:38;;;;;;;69.37;8.20;;;17.50;46.40;;;;;;5085250;28;20180;-83
2022/07/27 04:49:03;;;;;;;71.80;7.07;;;17.50;53.00;;;;;;5084840;28;20243;-83
2022/07/27 04:51:29;;;;;;;66.83;6.17;;;17.70;49.70;;;;;;5085809;28;20180;-82
2022/07/27 04:53:55;;;;;;;67.00;4.90;;;18.10;46.50;;;;;;5084909;28;20174;-83
2022/07/27 04:56:20;;;;;;;66.87;3.40;;;18.50;39.70;;;;;;5085833;28;20563;-83
2022/07/27 04:58:46;;;;;;;67.90;3.63;;;18.80;33.00;;;;;;5082396;28;20180;-83
2022/07/27 05:01:12;;;;;;;69.63;4.00;;;18.90;28.50;;;;;;5064197;28;20168;-82
2022/07/27 05:03:39;;;;;;;66.40;3.27;;;18.80;27.10;;;;;;5082559;28;20402;-83
2022/07/27 05:06:05;;;;;;;66.30;3.33;;;18.70;26.20;;;;;;5082849;28;20478;-83
2022/07/27 05:08:32;;;;;;;70.63;3.90;;;18.60;27.70;;;;;;5082055;28;20427;-83
2022/07/27 05:10:57;;;;;;;67.80;4.37;;;18.50;29.10;;;;;;5064652;28;20786;-83
2022/07/27 05:13:23;;;;;;;69.07;4.70;;;18.40;33.50;;;;;;5081791;28;20406;-83
2022/07/27 05:15:49;;;;;;;67.50;4.97;;;18.30;36.60;;;;;;5082248;28;20605;-83
2022/07/27 05:18:15;;;;;;;68.30;4.83;;;18.10;39.50;;;;;;5064079;28;20187;-83
2022/07/27 05:20:40;;;;;;;67.23;5.50;;;18.10;41.30;;;;;;5082526;28;20171;-83
2022/07/27 05:23:06;;;;;;;67.17;6.27;;;18.10;42.90;;;;;;5085693;28;20241;-83
2022/07/27 05:25:32;;;;;;;71.47;6.80;;;18.00;46.50;;;;;;5067742;28;20176;-83
2022/07/27 05:27:58;;;;;;;68.67;7.43;;;17.90;48.50;;;;;;5084727;28;20449;-82
2022/07/27 05:30:24;;;;;;;71.47;8.83;;;17.90;49.90;;;;;;5083695;28;20171;-82
2022/07/27 05:32:50;;;;;;;67.10;7.80;;;17.70;53.30;;;;;;5067109;28;20551;-82
2022/07/27 05:35:16;;;;;;;68.57;9.83;;;17.50;56.50;;;;;;5084699;28;20406;-82
2022/07/27 05:37:42;;;;;;;69.73;10.10;;;17.60;56.60;;;;;;5086970;28;20436;-82
2022/07/27 05:40:09;;;;;;;69.20;10.20;;;17.50;58.40;;;;;;5087015;28;20394;-82
2022/07/27 05:42:35;;;;;;;68.77;10.70;;;17.60;57.50;;;;;;5086354;28;20164;-82
2022/07/27 05:45:01;;;;;;;72.90;9.10;;;17.60;58.50;;;;;;5068614;28;20409;-82
2022/07/27 05:47:27;;;;;;;71.77;11.60;;;17.50;60.20;;;;;;5086731;28;20473;-83
2022/07/27 05:49:52;;;;;;;69.37;12.00;;;17.50;59.60;;;;;;5088159;28;20188;-83
2022/07/27 05:52:19;;;;;;;69.50;13.17;;;17.60;60.00;;;;;;5088656;28;20248;-82
2022/07/27 05:54:45;;;;;;;68.70;11.00;;;17.50;62.10;;;;;;5087434;28;20170;-82
2022/07/27 05:57:14;;;;;;;69.60;11.70;;;17.40;64.50;;;;;;5087879;28;20437;-82
2022/07/27 05:59:39;;;;;;;70.50;10.13;;;17.40;65.70;;;;;;5086597;28;20410;-82
2022/07/27 06:02:06;;;;;;;71.97;12.07;;;17.20;69.50;;;;;;5086735;28;20433;-82
2022/07/27 06:04:31;;;;;;;77.00;13.77;;;17.30;68.80;;;;;;5067469;28;20417;-82
2022/07/27 06:09:41;;;;;;;74.70;17.77;;;17.20;75.00;;;;;;5088400;28;20163;-82
2022/07/27 06:12:07;;;;;;;72.77;18.07;;;17.30;73.40;;;;;;5085023;28;20769;-83
2022/07/27 06:14:33;;;;;;;73.47;17.03;;;17.30;75.10;;;;;;5088361;28;20658;-83
2022/07/27 06:16:59;;;;;;;81.50;20.80;;;17.20;76.50;;;;;;5087393;28;20442;-82
2022/07/27 06:19:25;;;;;;;72.63;20.27;;;17.20;77.90;;;;;;5088325;28;20414;-83
2022/07/27 06:21:50;;;;;;;73.70;21.27;;;17.10;79.20;;;;;;5086464;28;20163;-83
2022/07/27 06:24:16;;;;;;;76.60;24.97;;;17.00;81.00;;;;;;5085657;28;20231;-83
2022/07/27 06:26:43;;;;;;;74.00;26.60;;;17.10;77.80;;;;;;5083684;28;20225;-82
2022/07/27 06:29:08;;;;;;;74.67;22.10;;;17.10;78.40;;;;;;5084281;28;20190;-83
2022/07/27 06:31:34;;;;;;;73.60;23.00;;;17.20;74.60;;;;;;5084589;28;20453;-82
2022/07/27 06:34:00;;;;;;;78.63;22.40;;;17.30;74.00;;;;;;5065662;28;20573;-82
2022/07/27 06:36:25;;;;;;;73.97;24.43;;;17.20;77.60;;;;;;5085190;28;20199;-82
2022/07/27 06:38:51;;;;;;;73.97;27.07;;;17.20;77.50;;;;;;5068696;28;20438;-82
2022/07/27 06:41:17;;;;;;;75.67;21.93;;;17.30;75.70;;;;;;5087170;28;20153;-82
2022/07/27 06:43:43;;;;;;;75.60;22.27;;;17.40;73.30;;;;;;5086190;28;20165;-81
2022/07/27 06:46:11;;;;;;;78.10;20.50;;;17.40;70.00;;;;;;5086512;28;20224;-82
2022/07/27 06:48:38;;;;;;;73.03;21.47;;;17.40;71.00;;;;;;5070145;28;20206;-82
2022/07/27 06:51:03;;;;;;;75.10;16.67;;;17.50;67.30;;;;;;5088230;28;20410;-82
2022/07/27 06:53:29;;;;;;;69.47;13.30;;;17.60;62.40;;;;;;5087813;28;20409;-81
2022/07/27 06:55:57;;;;;;;70.53;15.07;;;17.70;58.80;;;;;;5068526;28;20207;-82
2022/07/27 06:58:22;;;;;;;69.20;12.60;;;17.80;58.70;;;;;;5087489;28;20254;-82
2022/07/27 07:00:48;;;;;;;70.57;13.47;;;17.80;55.00;;;;;;5086966;28;20394;-82
2022/07/27 07:03:14;;;;;;;70.07;12.47;;;17.90;56.60;;;;;;5087306;28;20631;-81
2022/07/27 07:05:45;;;;;;;72.50;10.00;;;17.90;52.60;;;;;;5069022;28;20445;-83
2022/07/27 07:08:12;;;;;;;68.00;9.40;;;18.00;48.10;;;;;;5086976;28;20794;-82
2022/07/27 07:10:42;;;;;;;73.97;7.10;;;17.90;49.90;;;;;;5086510;28;20403;-81
2022/07/27 07:13:08;;;;;;;68.57;7.63;;;17.90;45.60;;;;;;5087835;28;20402;-83
2022/07/27 07:15:36;;;;;;;69.00;7.67;;;17.90;44.20;;;;;;5086855;28;20438;-82
2022/07/27 07:18:02;;;;;;;66.77;6.90;;;18.00;43.20;;;;;;5085920;28;20948;-82
2022/07/27 07:20:29;;;;;;;69.70;6.90;;;18.00;39.50;;;;;;5086022;28;20403;-80
2022/07/27 07:22:56;;;;;;;69.80;5.27;;;18.10;38.50;;;;;;5086717;28;20402;-82
2022/07/27 07:25:21;;;;;;;74.20;5.60;;;18.20;36.50;;;;;;5086215;28;20470;-82
2022/07/27 07:27:48;;;;;;;68.70;4.40;;;18.20;27.50;;;;;;5086160;28;20956;-80
2022/07/27 07:30:13;;;;;;;67.37;4.20;;;18.20;31.20;;;;;;5086524;28;20247;-82
2022/07/27 07:32:39;;;;;;;66.30;3.47;;;18.20;27.40;;;;;;5086119;28;20500;-83
2022/07/27 07:35:05;;;;;;;65.17;2.90;;;18.20;19.40;;;;;;5067529;28;20160;-82
2022/07/27 07:37:31;;;;;;;70.00;4.07;;;18.10;20.60;;;;;;5068542;28;20584;-82
2022/07/27 07:39:58;;;;;;;71.77;3.50;;;18.00;18.80;;;;;;5086142;28;20410;-82
2022/07/27 07:42:24;;;;;;;68.87;6.17;;;18.00;21.10;;;;;;5069629;28;20201;-83
2022/07/27 07:44:50;;;;;;;67.97;3.83;;;18.10;16.40;;;;;;5069719;28;20406;-83
2022/07/27 07:47:16;;;;;;;66.80;3.47;;;18.20;18.20;;;;;;5071919;28;20430;-82
2022/07/27 07:49:41;;;;;;;67.37;4.57;;;18.20;18.30;;;;;;5088197;28;20415;-82
2022/07/27 07:52:07;;;;;;;68.97;4.90;;;18.20;16.10;;;;;;5087953;28;20164;-82
2022/07/27 07:54:33;;;;;;;66.17;5.90;;;18.30;16.20;;;;;;5086835;28;20172;-82
2022/07/27 07:56:59;;;;;;;67.50;6.90;;;18.30;9.80;;;;;;5068654;28;20446;-83
2022/07/27 07:59:25;;;;;;;70.93;6.63;;;18.30;8.20;;;;;;5087829;28;20548;-83
2022/07/27 08:01:51;;;;;;;71.70;9.00;;;18.40;7.90;;;;;;5086831;28;20466;-83
2022/07/27 08:04:16;;;;;;;68.27;8.27;;;18.40;7.60;;;;;;5086245;28;20160;-81
2022/07/27 08:06:45;;;;;;;67.40;8.80;;;18.50;5.30;;;;;;5086299;28;20159;-82
2022/07/27 08:09:12;;;;;;;67.13;9.10;;;18.50;1.00;;;;;;5085927;28;20186;-82
2022/07/27 08:11:38;;;;;;;67.27;7.43;;;18.40;1.00;;;;;;5086088;28;20913;-82
2022/07/27 08:14:04;;;;;;;66.97;7.30;;;18.30;6.00;;;;;;5068376;28;20433;-82
2022/07/27 08:16:30;;;;;;;69.90;9.83;;;18.30;8.20;;;;;;5067117;28;20948;-82
2022/07/27 08:18:55;;;;;;;69.30;9.00;;;18.40;1.00;;;;;;5083049;28;20179;-82
2022/07/27 08:21:21;;;;;;;69.80;8.37;;;18.40;1.00;;;;;;5085566;28;20160;-82
2022/07/27 08:23:46;;;;;;;68.27;9.03;;;18.40;1.00;;;;;;5082334;28;20579;-82
2022/07/27 08:26:12;;;;;;;70.67;7.63;;;18.60;1.00;;;;;;5084326;28;20160;-82
2022/07/27 08:28:38;;;;;;;68.37;7.80;;;18.70;1.00;;;;;;5082822;28;20192;-82
2022/07/27 08:31:03;;;;;;;67.50;7.73;;;18.70;1.00;;;;;;5082804;28;20523;-82
2022/07/27 08:33:29;;;;;;;69.87;5.57;;;18.80;1.00;;;;;;5064755;28;20171;-82
2022/07/27 08:35:56;;;;;;;70.37;5.47;;;18.80;1.00;;;;;;5085597;28;20194;-82
2022/07/27 08:38:22;;;;;;;72.63;4.93;;;18.70;1.00;;;;;;5083126;28;20426;-82
2022/07/27 08:40:49;;;;;;;66.20;4.33;;;18.80;1.00;;;;;;5085379;28;20408;-82
2022/07/27 08:43:15;;;;;;;66.20;3.23;;;18.90;1.00;;;;;;5082305;28;20402;-82
2022/07/27 08:45:44;;;;;;;69.10;2.80;;;19.00;1.00;;;;;;5081950;28;20394;-82
2022/07/27 08:48:13;;;;;;;69.70;3.63;;;18.90;1.00;;;;;;5063783;28;20471;-82
2022/07/27 08:50:42;;;;;;;67.50;2.73;;;19.00;1.00;;;;;;5067814;28;20766;-82
2022/07/27 08:53:11;;;;;;;65.57;2.50;;;19.10;1.00;;;;;;5082119;28;20501;-82
2022/07/27 08:55:38;;;;;;;67.80;2.70;;;19.20;1.00;;;;;;5082045;28;20933;-82
2022/07/27 08:58:05;;;;;;;67.17;3.20;;;19.30;1.00;;;;;;5065058;28;20453;-82
2022/07/27 09:00:33;;;;;;;65.43;2.23;;;19.40;1.00;;;;;;5082482;28;20430;-82
2022/07/27 09:02:59;;;;;;;68.97;2.60;;;19.50;1.00;;;;;;5064317;28;20517;-81
2022/07/27 09:05:25;;;;;;;66.77;2.60;;;19.60;1.00;;;;;;5066556;28;20424;-82
2022/07/27 09:07:51;;;;;;;69.47;3.20;;;19.70;1.00;;;;;;5066880;28;20484;-82
2022/07/27 09:10:33;;;;;;;66.20;2.33;;;19.70;1.00;;;;;;5082975;28;20482;-81
2022/07/27 09:13:14;;;;;;;65.40;2.30;;;19.60;1.00;;;;;;5060483;28;20398;-82
2022/07/27 09:15:45;;;;;;;65.77;2.13;;;19.80;1.00;;;;;;5083024;28;20441;-82
2022/07/27 09:18:22;;;;;;;70.07;2.43;;;19.80;1.00;;;;;;5065637;28;20422;-82
2022/07/27 09:21:11;;;;;;;65.77;2.13;;;19.80;1.00;;;;;;5083802;28;20754;-80
2022/07/27 09:23:38;;;;;;;66.00;2.50;;;19.60;1.00;;;;;;5050468;28;20425;-80
2022/07/27 09:26:11;;;;;;;65.57;2.33;;;19.60;1.00;;;;;;5084428;28;20406;-82
2022/07/27 09:28:37;;;;;;;66.53;2.07;;;19.70;1.00;;;;;;5065498;28;20432;-82
2022/07/27 09:31:08;;;;;;;66.97;2.23;;;19.80;1.00;;;;;;5084189;28;20415;-82
2022/07/27 09:33:54;;;;;;;66.77;2.30;;;19.80;1.00;;;;;;5084491;28;20239;-82
2022/07/27 09:36:22;;;;;;;66.87;2.23;;;20.00;1.00;;;;;;5084889;28;20509;-82
2022/07/27 09:38:55;;;;;;;70.23;2.77;;;20.20;1.00;;;;;;5084518;28;20414;-82
2022/07/27 09:41:22;;;;;;;66.70;1.97;;;20.50;1.00;;;;;;5066021;28;20406;-82
2022/07/27 09:43:50;;;;;;;66.47;2.40;;;20.80;1.00;;;;;;5066339;28;20773;-81
2022/07/27 09:46:30;;;;;;;65.77;2.50;;;21.00;1.00;;;;;;5084188;28;20407;-82
2022/07/27 09:48:57;;;;;;;68.80;2.40;;;21.00;1.00;;;;;;5078519;28;20446;-80
2022/07/27 09:51:25;;;;;;;66.00;2.47;;;21.10;1.00;;;;;;5079396;28;20597;-82
2022/07/27 09:53:53;;;;;;;65.90;2.50;;;21.10;1.00;;;;;;5080425;28;20435;-82
2022/07/27 09:56:25;;;;;;;66.77;2.40;;;21.00;1.00;;;;;;5081211;28;20435;-82
2022/07/27 09:58:55;;;;;;;65.70;2.00;;;20.80;1.00;;;;;;5082444;28;20508;-80
2022/07/27 10:01:33;;;;;;;65.53;2.63;;;20.70;1.00;;;;;;5083104;28;20904;-81
2022/07/27 10:04:07;;;;;;;66.40;2.30;;;20.60;1.00;;;;;;5083026;28;20416;-81
2022/07/27 10:06:34;;;;;;;66.67;2.70;;;20.50;1.00;;;;;;5064293;28;20779;-82
2022/07/27 10:09:00;;;;;;;66.73;2.47;;;20.50;1.00;;;;;;5084629;28;20431;-82
2022/07/27 10:11:27;;;;;;;66.20;2.70;;;20.50;1.00;;;;;;5065251;28;20952;-81
2022/07/27 10:13:54;;;;;;;65.87;2.57;;;20.60;1.00;;;;;;5063792;28;20476;-82
2022/07/27 10:16:24;;;;;;;68.43;2.30;;;20.70;1.00;;;;;;5082591;28;20552;-81
2022/07/27 10:19:08;;;;;;;65.30;2.30;;;20.70;1.00;;;;;;5083275;28;20416;-82
2022/07/27 10:21:37;;;;;;;65.20;2.30;;;20.70;1.00;;;;;;5082951;28;20392;-82
2022/07/27 10:24:08;;;;;;;64.77;2.17;;;20.60;1.00;;;;;;5066784;28;20411;-82
2022/07/27 10:26:39;;;;;;;65.90;2.10;;;20.80;1.00;;;;;;5088024;28;20411;-81
2022/07/27 10:29:19;;;;;;;67.13;2.47;;;21.40;1.00;;;;;;5087781;28;20453;-82
2022/07/27 10:31:53;;;;;;;66.80;3.50;;;21.70;1.00;;;;;;5087676;28;20389;-82
2022/07/27 10:34:52;;;;;;;65.20;2.37;;;22.00;1.00;;;;;;5069414;28;20413;-82
2022/07/27 10:37:29;;;;;;;69.90;2.50;;;22.30;1.00;;;;;;5033373;28;20476;-82
2022/07/27 10:42:51;;;;;;;68.03;2.17;;;22.80;1.00;;;;;;5086868;28;20409;-82
2022/07/27 10:45:17;;;;;;;65.70;2.30;;;22.90;1.00;;;;;;5086917;28;20407;-82
2022/07/27 10:47:48;;;;;;;65.80;2.27;;;22.80;1.00;;;;;;5086723;28;20461;-82
2022/07/27 10:50:14;;;;;;;66.13;2.50;;;23.10;1.00;;;;;;5068098;28;20414;-82
2022/07/27 10:52:54;;;;;;;67.50;2.17;;;23.40;1.00;;;;;;5068156;28;20410;-82
2022/07/27 10:55:28;;;;;;;65.67;1.87;;;23.40;1.00;;;;;;5085013;28;20505;-82
2022/07/27 10:58:03;;;;;;;67.07;2.17;;;23.30;1.00;;;;;;5084606;28;20429;-83
2022/07/27 11:00:47;;;;;;;65.47;2.30;;;23.10;1.00;;;;;;5083170;28;20469;-82
2022/07/27 11:03:25;;;;;;;66.63;2.50;;;22.70;1.00;;;;;;5083028;28;20394;-83
2022/07/27 11:05:58;;;;;;;64.67;2.10;;;22.50;1.00;;;;;;5086833;28;20422;-82
2022/07/27 11:08:25;;;;;;;67.23;2.20;;;22.30;1.00;;;;;;5089074;28;20426;-83
2022/07/27 11:10:52;;;;;;;67.10;2.30;;;22.20;1.00;;;;;;5087080;28;20404;-82
2022/07/27 11:13:19;;;;;;;67.10;2.10;;;22.20;1.00;;;;;;5085299;28;20433;-82
2022/07/27 11:16:03;;;;;;;70.73;2.40;;;22.10;1.00;;;;;;5085971;28;20465;-82
2022/07/27 11:18:31;;;;;;;65.77;2.70;;;22.00;1.00;;;;;;5084426;28;20431;-82
2022/07/27 11:21:15;;;;;;;67.17;3.53;;;22.00;1.00;;;;;;5086182;28;20470;-82
2022/07/27 11:23:42;;;;;;;76.50;4.57;;;22.20;1.00;;;;;;5085928;28;20399;-82
2022/07/27 11:26:07;;;;;;;69.17;3.67;;;22.70;1.00;;;;;;5088845;28;20456;-81
2022/07/27 11:28:35;;;;;;;65.37;2.70;;;23.00;1.00;;;;;;5088114;28;20430;-82
2022/07/27 11:31:02;;;;;;;67.40;2.80;;;23.40;1.00;;;;;;5086681;28;20221;-82
2022/07/27 11:33:28;;;;;;;66.30;3.13;;;23.30;1.00;;;;;;5086286;28;20888;-82
2022/07/27 11:35:59;;;;;;;65.93;2.80;;;23.40;1.00;;;;;;5087084;28;20953;-82
2022/07/27 11:38:26;;;;;;;68.40;2.97;;;23.80;1.00;;;;;;5088180;28;20418;-82
2022/07/27 11:40:53;;;;;;;67.27;3.40;;;24.20;1.00;;;;;;5068783;28;20402;-82
2022/07/27 11:43:33;;;;;;;66.40;3.60;;;24.60;1.00;;;;;;5087591;28;20406;-82
2022/07/27 11:46:17;;;;;;;66.80;3.73;;;24.30;1.00;;;;;;5086522;28;20406;-82
2022/07/27 11:49:05;;;;;;;68.27;3.63;;;24.00;1.00;;;;;;5087415;28;20524;-82
2022/07/27 11:51:31;;;;;;;68.17;4.20;;;23.80;1.00;;;;;;5084490;28;20374;-82
2022/07/27 11:53:59;;;;;;;66.90;3.97;;;23.40;1.00;;;;;;5086670;28;20410;-82
2022/07/27 11:56:26;;;;;;;66.60;3.90;;;23.10;1.00;;;;;;5083772;28;20478;-82
2022/07/27 11:59:06;;;;;;;66.90;3.70;;;22.90;1.00;;;;;;5088251;28;20450;-82
2022/07/27 12:01:33;;;;;;;67.27;4.00;;;22.90;1.00;;;;;;5069589;28;20410;-82
2022/07/27 12:04:09;;;;;;;67.70;4.30;;;22.80;1.00;;;;;;5087277;28;20407;-82
2022/07/27 12:06:37;;;;;;;69.57;4.20;;;22.80;1.00;;;;;;5068703;28;20444;-82
2022/07/27 12:09:05;;;;;;;68.47;4.50;;;23.10;1.00;;;;;;5068551;28;20430;-82
2022/07/27 12:11:49;;;;;;;67.20;4.03;;;23.20;1.00;;;;;;5086447;28;21008;-82
2022/07/27 12:14:16;;;;;;;67.40;3.57;;;23.50;1.00;;;;;;5087212;28;20447;-82
2022/07/27 12:16:42;;;;;;;66.67;3.70;;;23.70;1.00;;;;;;5085950;28;20532;-82
2022/07/27 12:19:08;;;;;;;69.37;4.27;;;23.70;1.00;;;;;;5083292;28;20462;-82
2022/07/27 12:21:34;;;;;;;69.07;4.53;;;23.50;1.00;;;;;;5082473;28;20928;-82
2022/07/27 12:24:00;;;;;;;67.70;4.43;;;23.20;1.00;;;;;;5084052;28;20190;-82
2022/07/27 12:26:26;;;;;;;68.70;3.93;;;23.20;1.00;;;;;;5080547;28;20414;-82
2022/07/27 12:29:12;;;;;;;68.77;4.20;;;23.50;1.00;;;;;;5063239;28;20482;-82
2022/07/27 12:31:47;;;;;;;71.10;4.30;;;23.20;1.00;;;;;;5080673;28;20180;-83
2022/07/27 12:34:14;;;;;;;71.07;4.00;;;23.20;1.00;;;;;;5061598;28;20406;-82
2022/07/27 12:36:41;;;;;;;68.57;4.33;;;23.10;1.00;;;;;;5080877;28;20525;-82
2022/07/27 12:39:23;;;;;;;68.93;3.67;;;23.20;1.00;;;;;;5080392;28;20414;-82
2022/07/27 12:42:00;;;;;;;66.20;3.40;;;23.50;1.00;;;;;;5082310;28;20442;-82
2022/07/27 12:44:32;;;;;;;66.87;3.60;;;23.70;1.00;;;;;;5081000;28;20433;-82
2022/07/27 12:47:39;;;;;;;67.50;4.03;;;23.70;1.00;;;;;;5064718;28;20418;-83
2022/07/27 12:50:07;;;;;;;67.37;3.90;;;23.70;1.00;;;;;;5081732;28;20419;-82
2022/07/27 12:52:41;;;;;;;66.40;3.33;;;23.80;1.00;;;;;;5068131;28;20397;-82